createdAt,value
2018-04-06T00:02:00.888Z,0.00
2018-04-06T00:04:28.424Z,0.00
2018-04-06T00:06:56.003Z,0.00
2018-04-06T00:09:23.555Z,0.10
2018-04-06T00:11:51.123Z,0.00
2018-04-06T00:14:18.691Z,0.00
2018-04-06T00:16:46.336Z,-0.10
2018-04-06T00:19:13.894Z,-0.10
2018-04-06T00:21:41.469Z,-0.10
2018-04-06T00:24:09.779Z,-0.30
2018-04-06T00:26:38.086Z,-0.20
2018-04-06T00:29:05.663Z,-0.30
2018-04-06T00:31:33.220Z,-0.30
2018-04-06T00:34:00.760Z,-0.40
2018-04-06T00:36:28.447Z,-0.40
2018-04-06T00:38:56.000Z,-0.40
2018-04-06T00:41:23.539Z,-0.40
2018-04-06T00:43:51.118Z,-0.40
2018-04-06T00:46:18.679Z,-0.30
2018-04-06T00:48:46.219Z,-0.30
2018-04-06T00:51:13.814Z,-0.40
2018-04-06T00:53:48.410Z,-0.40
2018-04-06T00:56:15.992Z,-0.50
2018-04-06T00:58:43.643Z,-0.30
2018-04-06T01:01:11.191Z,-0.30
2018-04-06T01:03:39.499Z,-0.40
2018-04-06T01:06:07.132Z,-0.40
2018-04-06T01:08:34.676Z,-0.40
2018-04-06T01:11:02.250Z,-0.30
2018-04-06T01:13:29.808Z,-0.20
2018-04-06T01:15:57.371Z,-0.20
2018-04-06T01:18:25.036Z,-0.10
2018-04-06T01:20:52.690Z,0.00
2018-04-06T01:23:20.250Z,-0.10
2018-04-06T01:25:47.914Z,-0.10
2018-04-06T01:28:15.571Z,-0.10
2018-04-06T01:30:43.226Z,-0.20
2018-04-06T01:33:10.795Z,-0.30
2018-04-06T01:35:38.342Z,-0.30
2018-04-06T01:38:05.908Z,-0.30
2018-04-06T01:40:33.558Z,-0.30
2018-04-06T01:43:01.122Z,-0.10
2018-04-06T01:45:28.676Z,0.00
2018-04-06T01:47:56.257Z,0.20
2018-04-06T01:50:23.901Z,0.50
2018-04-06T01:52:51.436Z,0.70
2018-04-06T01:55:19.019Z,0.90
2018-04-06T01:57:46.553Z,0.90
2018-04-06T02:00:14.103Z,0.80
2018-04-06T02:02:41.708Z,0.70
2018-04-06T02:05:09.355Z,0.70
2018-04-06T02:07:36.915Z,0.70
2018-04-06T02:10:04.492Z,0.80
2018-04-06T02:12:32.044Z,0.80
2018-04-06T02:14:59.580Z,0.80
2018-04-06T02:17:27.247Z,1.00
2018-04-06T02:19:54.813Z,1.00
2018-04-06T02:22:22.376Z,1.00
2018-04-06T02:24:50.101Z,1.00
2018-04-06T02:27:18.370Z,0.90
2018-04-06T02:29:45.912Z,0.80
2018-04-06T02:32:14.247Z,0.90
2018-04-06T02:34:41.779Z,0.80
2018-04-06T02:37:09.320Z,0.90
2018-04-06T02:39:37.988Z,0.80
2018-04-06T02:42:06.295Z,0.70
2018-04-06T02:44:33.837Z,0.60
2018-04-06T02:47:01.641Z,0.60
2018-04-06T02:49:29.301Z,0.70
2018-04-06T02:51:56.840Z,0.70
2018-04-06T02:54:24.415Z,0.80
2018-04-06T02:56:51.960Z,0.80
2018-04-06T02:59:19.550Z,0.90
2018-04-06T03:01:47.205Z,0.70
2018-04-06T03:04:14.764Z,0.40
2018-04-06T03:06:42.843Z,0.20
2018-04-06T03:09:10.483Z,0.00
2018-04-06T03:11:38.031Z,-0.10
2018-04-06T03:14:05.579Z,-0.20
2018-04-06T03:16:33.163Z,-0.20
2018-04-06T03:19:00.722Z,-0.40
2018-04-06T03:21:28.282Z,-0.60
2018-04-06T03:23:55.868Z,-0.60
2018-04-06T03:26:23.478Z,-0.60
2018-04-06T03:28:51.006Z,-0.70
2018-04-06T03:31:19.416Z,-0.70
2018-04-06T03:33:47.088Z,-0.70
2018-04-06T03:36:14.628Z,-0.70
2018-04-06T03:38:42.190Z,-0.80
2018-04-06T03:41:09.734Z,-0.80
2018-04-06T03:43:37.258Z,-0.80
2018-04-06T03:46:04.868Z,-0.90
2018-04-06T03:48:32.383Z,-0.80
2018-04-06T03:51:00.658Z,-0.40
2018-04-06T03:53:28.264Z,-0.40
2018-04-06T03:55:55.771Z,-0.60
2018-04-06T03:58:23.386Z,-0.70
2018-04-06T04:00:51.039Z,-0.80
2018-04-06T04:03:18.549Z,-0.90
2018-04-06T04:05:46.069Z,-1.00
2018-04-06T04:08:13.620Z,-1.10
2018-04-06T04:10:41.136Z,-1.10
2018-04-06T04:13:09.433Z,-0.90
2018-04-06T04:15:37.011Z,-1.00
2018-04-06T04:18:04.545Z,-0.90
2018-04-06T04:20:32.075Z,-1.10
2018-04-06T04:23:00.406Z,-1.20
2018-04-06T04:25:27.919Z,-1.30
2018-04-06T04:27:56.229Z,-1.20
2018-04-06T04:30:23.784Z,-1.20
2018-04-06T04:32:51.294Z,-1.20
2018-04-06T04:35:18.846Z,-1.30
2018-04-06T04:37:46.480Z,-1.20
2018-04-06T04:40:14.008Z,-1.30
2018-04-06T04:42:41.603Z,-1.40
2018-04-06T04:45:09.157Z,-1.00
2018-04-06T04:47:36.696Z,-0.90
2018-04-06T04:50:04.223Z,-0.80
2018-04-06T04:52:32.635Z,-0.80
2018-04-06T04:55:00.203Z,-0.90
2018-04-06T04:57:27.750Z,-0.70
2018-04-06T04:59:55.299Z,-0.60
2018-04-06T05:02:22.865Z,-0.50
2018-04-06T05:04:50.440Z,-0.50
2018-04-06T05:07:18.000Z,-0.50
2018-04-06T05:09:45.549Z,-0.50
2018-04-06T05:12:13.054Z,-0.40
2018-04-06T05:14:40.630Z,-0.50
2018-04-06T05:17:08.924Z,-0.70
2018-04-06T05:19:36.460Z,-0.70
2018-04-06T05:22:04.801Z,-0.70
2018-04-06T05:24:32.444Z,-0.80
2018-04-06T05:26:59.981Z,-0.80
2018-04-06T05:29:27.542Z,-0.70
2018-04-06T05:31:55.120Z,-0.60
2018-04-06T05:34:22.684Z,-0.60
2018-04-06T05:36:50.342Z,-0.60
2018-04-06T05:39:17.902Z,-0.60
2018-04-06T05:41:45.447Z,-0.40
2018-04-06T05:44:13.107Z,-0.30
2018-04-06T05:46:40.634Z,-0.30
2018-04-06T05:49:08.936Z,0.00
2018-04-06T05:51:36.528Z,0.00
2018-04-06T05:54:04.025Z,0.30
2018-04-06T05:56:32.739Z,0.50
2018-04-06T05:59:00.292Z,0.40
2018-04-06T06:01:27.877Z,0.70
2018-04-06T06:03:55.449Z,0.80
2018-04-06T06:06:23.001Z,0.90
2018-04-06T06:08:50.521Z,0.90
2018-04-06T06:11:18.040Z,1.00
2018-04-06T06:13:45.594Z,1.10
2018-04-06T06:16:13.115Z,1.20
2018-04-06T06:18:40.649Z,1.40
2018-04-06T06:21:08.222Z,1.50
2018-04-06T06:23:35.734Z,1.60
2018-04-06T06:26:04.060Z,1.80
2018-04-06T06:28:31.621Z,1.70
2018-04-06T06:30:59.134Z,1.90
2018-04-06T06:33:27.458Z,2.20
2018-04-06T06:35:55.136Z,2.20
2018-04-06T06:38:22.660Z,2.30
2018-04-06T06:40:50.242Z,2.40
2018-04-06T06:43:17.800Z,2.50
2018-04-06T06:45:45.336Z,2.60
2018-04-06T06:48:12.933Z,2.70
2018-04-06T06:50:40.484Z,2.70
2018-04-06T06:53:08.037Z,2.90
2018-04-06T06:55:35.606Z,3.00
2018-04-06T06:58:03.169Z,3.10
2018-04-06T07:00:30.699Z,3.20
2018-04-06T07:02:58.233Z,3.30
2018-04-06T07:05:26.648Z,3.60
2018-04-06T07:07:54.208Z,3.50
2018-04-06T07:10:21.742Z,3.70
2018-04-06T07:12:49.328Z,3.90
2018-04-06T07:15:16.854Z,3.90
2018-04-06T07:17:44.363Z,4.00
2018-04-06T07:20:11.909Z,4.10
2018-04-06T07:22:39.449Z,4.30
2018-04-06T07:25:06.982Z,4.40
2018-04-06T07:27:34.537Z,4.40
2018-04-06T07:30:02.076Z,4.50
2018-04-06T07:32:30.436Z,4.70
2018-04-06T07:34:57.980Z,4.70
2018-04-06T07:37:25.522Z,4.80
2018-04-06T07:39:53.050Z,4.90
2018-04-06T07:42:20.633Z,5.00
2018-04-06T07:44:48.186Z,5.00
2018-04-06T07:47:15.764Z,5.20
2018-04-06T07:49:43.387Z,5.30
2018-04-06T07:52:11.672Z,5.40
2018-04-06T07:54:39.205Z,5.40
2018-04-06T07:57:07.608Z,5.50
2018-04-06T07:59:35.171Z,5.50
2018-04-06T08:02:02.852Z,5.60
2018-04-06T08:04:30.394Z,5.70
2018-04-06T08:06:57.954Z,5.70
2018-04-06T08:09:25.521Z,5.90
2018-04-06T08:11:53.159Z,6.00
2018-04-06T08:14:20.694Z,6.00
2018-04-06T08:16:48.977Z,6.20
2018-04-06T08:19:17.402Z,6.30
2018-04-06T08:21:44.952Z,6.20
2018-04-06T08:24:12.505Z,6.30
2018-04-06T08:26:40.047Z,6.40
2018-04-06T08:29:07.550Z,6.60
2018-04-06T08:31:35.078Z,6.70
2018-04-06T08:34:02.633Z,6.80
2018-04-06T08:36:30.197Z,6.90
2018-04-06T08:38:57.727Z,7.00
2018-04-06T08:41:26.045Z,7.10
2018-04-06T08:43:53.559Z,7.00
2018-04-06T08:46:21.966Z,7.30
2018-04-06T08:48:49.533Z,7.20
2018-04-06T08:51:17.052Z,7.40
2018-04-06T08:53:45.339Z,7.70
2018-04-06T08:56:12.936Z,7.60
2018-04-06T08:58:40.478Z,7.70
2018-04-06T09:01:08.003Z,7.70
2018-04-06T09:03:36.531Z,7.90
2018-04-06T09:06:04.180Z,7.80
2018-04-06T09:08:31.734Z,8.00
2018-04-06T09:10:59.284Z,8.10
2018-04-06T09:13:26.796Z,8.20
2018-04-06T09:15:54.321Z,8.10
2018-04-06T09:18:21.963Z,8.20
2018-04-06T09:20:49.490Z,8.30
2018-04-06T09:23:17.791Z,8.60
2018-04-06T09:25:45.331Z,8.60
2018-04-06T09:28:13.606Z,8.80
2018-04-06T09:30:41.906Z,8.90
2018-04-06T09:33:09.466Z,8.90
2018-04-06T09:35:36.988Z,9.10
2018-04-06T09:38:05.276Z,9.30
2018-04-06T09:40:33.588Z,9.20
2018-04-06T09:43:01.319Z,9.20
2018-04-06T09:45:28.897Z,9.20
2018-04-06T09:47:56.461Z,9.30
2018-04-06T09:50:25.355Z,9.40
2018-04-06T09:52:52.905Z,9.40
2018-04-06T09:55:20.474Z,9.50
2018-04-06T09:57:47.995Z,9.60
2018-04-06T10:00:22.241Z,9.90
2018-04-06T10:02:49.772Z,9.90
2018-04-06T10:05:26.150Z,10.00
2018-04-06T10:07:53.669Z,10.20
2018-04-06T10:10:21.289Z,10.30
2018-04-06T10:12:48.832Z,10.30
2018-04-06T10:15:16.353Z,10.40
2018-04-06T10:17:44.649Z,10.60
2018-04-06T10:20:12.215Z,10.50
2018-04-06T10:22:39.743Z,10.70
2018-04-06T10:25:08.043Z,10.80
2018-04-06T10:27:35.625Z,10.80
2018-04-06T10:30:03.192Z,11.00
2018-04-06T10:32:30.714Z,11.30
2018-04-06T10:34:59.038Z,11.50
2018-04-06T10:37:26.673Z,11.50
2018-04-06T10:39:54.851Z,11.60
2018-04-06T10:42:22.507Z,11.70
2018-04-06T10:44:50.069Z,11.70
2018-04-06T10:47:17.601Z,11.80
2018-04-06T10:49:46.004Z,11.90
2018-04-06T10:52:13.565Z,11.80
2018-04-06T10:54:41.128Z,11.80
2018-04-06T10:57:08.802Z,11.90
2018-04-06T10:59:36.315Z,12.00
2018-04-06T11:02:04.611Z,12.10
2018-04-06T11:04:32.198Z,12.00
2018-04-06T11:06:59.757Z,12.10
2018-04-06T11:09:27.299Z,12.20
2018-04-06T11:11:54.940Z,12.20
2018-04-06T11:14:22.468Z,12.20
2018-04-06T11:16:50.780Z,12.00
2018-04-06T11:19:18.638Z,12.00
2018-04-06T11:21:46.190Z,12.30
2018-04-06T11:24:13.869Z,12.30
2018-04-06T11:26:41.443Z,12.50
2018-04-06T11:29:09.001Z,12.70
2018-04-06T11:31:36.649Z,12.80
2018-04-06T11:34:04.332Z,12.90
2018-04-06T11:36:31.857Z,13.10
2018-04-06T11:38:59.600Z,13.20
2018-04-06T11:41:27.998Z,13.30
2018-04-06T11:43:55.532Z,13.30
2018-04-06T11:46:23.828Z,13.50
2018-04-06T11:48:51.394Z,13.40
2018-04-06T11:51:18.924Z,13.50
2018-04-06T11:53:47.205Z,13.60
2018-04-06T11:56:15.919Z,13.80
2018-04-06T11:58:43.442Z,13.70
2018-04-06T12:01:11.740Z,14.00
2018-04-06T12:03:39.294Z,13.90
2018-04-06T12:06:06.893Z,14.10
2018-04-06T12:08:34.406Z,14.30
2018-04-06T12:11:03.037Z,14.70
2018-04-06T12:13:30.616Z,14.60
2018-04-06T12:15:58.953Z,15.00
2018-04-06T12:18:26.606Z,14.90
2018-04-06T12:20:54.180Z,15.20
2018-04-06T12:23:21.687Z,15.50
2018-04-06T12:25:50.038Z,15.90
2018-04-06T12:28:17.666Z,15.80
2018-04-06T12:30:45.172Z,16.20
2018-04-06T12:33:12.796Z,16.30
2018-04-06T12:35:40.313Z,16.40
2018-04-06T12:38:08.849Z,17.70
2018-04-06T12:40:36.699Z,17.60
2018-04-06T12:43:04.292Z,18.40
2018-04-06T12:45:31.798Z,19.10
2018-04-06T12:47:59.481Z,19.40
2018-04-06T12:50:27.036Z,18.80
2018-04-06T12:52:54.739Z,18.30
2018-04-06T12:55:22.293Z,17.60
2018-04-06T12:57:49.895Z,18.30
2018-04-06T13:00:17.769Z,18.50
2018-04-06T13:02:45.341Z,18.60
2018-04-06T13:05:12.841Z,19.00
2018-04-06T13:07:40.364Z,19.10
2018-04-06T13:10:07.910Z,19.10
2018-04-06T13:12:35.434Z,19.30
2018-04-06T13:15:03.743Z,19.20
2018-04-06T13:17:31.331Z,19.10
2018-04-06T13:19:58.852Z,18.80
2018-04-06T13:22:26.374Z,18.90
2018-04-06T13:24:54.687Z,19.90
2018-04-06T13:27:22.205Z,19.90
2018-04-06T13:29:50.492Z,20.50
2018-04-06T13:32:18.898Z,20.10
2018-04-06T13:34:46.459Z,20.10
2018-04-06T13:37:14.072Z,19.60
2018-04-06T13:39:41.673Z,19.20
2018-04-06T13:42:09.244Z,19.50
2018-04-06T13:44:36.777Z,19.50
2018-04-06T13:47:04.353Z,19.40
2018-04-06T13:49:31.862Z,19.80
2018-04-06T13:51:59.391Z,19.80
2018-04-06T13:54:26.931Z,20.70
2018-04-06T13:56:54.611Z,21.30
2018-04-06T13:59:22.120Z,20.70
2018-04-06T14:01:50.517Z,21.00
2018-04-06T14:04:18.045Z,21.00
2018-04-06T14:06:46.333Z,21.20
2018-04-06T14:09:14.652Z,21.10
2018-04-06T14:11:42.159Z,21.10
2018-04-06T14:14:10.452Z,20.70
2018-04-06T14:16:38.221Z,20.70
2018-04-06T14:19:05.793Z,21.30
2018-04-06T14:21:33.354Z,21.10
2018-04-06T14:24:01.019Z,20.60
2018-04-06T14:26:28.535Z,20.30
2018-04-06T14:28:56.815Z,20.60
2018-04-06T14:31:25.132Z,20.70
2018-04-06T14:33:52.690Z,20.60
2018-04-06T14:36:20.236Z,20.70
2018-04-06T14:38:47.841Z,20.30
2018-04-06T14:41:15.332Z,20.90
2018-04-06T14:43:42.907Z,21.60
2018-04-06T14:46:10.590Z,21.50
2018-04-06T14:48:38.100Z,21.90
2018-04-06T14:51:06.409Z,21.10
2018-04-06T14:53:34.385Z,21.00
2018-04-06T14:56:01.910Z,21.80
2018-04-06T14:58:30.214Z,21.80
2018-04-06T15:00:57.873Z,21.70
2018-04-06T15:03:25.376Z,21.60
2018-04-06T15:05:52.900Z,21.20
2018-04-06T15:08:20.462Z,20.90
2018-04-06T15:10:47.986Z,21.10
2018-04-06T15:13:15.517Z,21.70
2018-04-06T15:15:43.933Z,21.20
2018-04-06T15:18:11.503Z,21.20
2018-04-06T15:20:39.294Z,21.50
2018-04-06T15:23:06.933Z,21.60
2018-04-06T15:25:34.469Z,21.70
2018-04-06T15:28:02.006Z,21.80
2018-04-06T15:30:30.326Z,21.10
2018-04-06T15:32:57.853Z,21.10
2018-04-06T15:35:25.377Z,21.60
2018-04-06T15:37:52.944Z,22.10
2018-04-06T15:40:21.236Z,21.40
2018-04-06T15:42:49.544Z,21.40
2018-04-06T15:45:17.108Z,21.40
2018-04-06T15:47:44.680Z,21.10
2018-04-06T15:50:12.218Z,20.90
2018-04-06T15:52:39.779Z,21.30
2018-04-06T15:55:07.323Z,21.80
2018-04-06T15:57:34.888Z,21.80
2018-04-06T16:00:02.445Z,21.70
2018-04-06T16:02:29.977Z,21.70
2018-04-06T16:04:58.387Z,20.50
2018-04-06T16:07:25.962Z,20.40
2018-04-06T16:09:53.491Z,19.80
2018-04-06T16:12:21.060Z,19.30
2018-04-06T16:14:48.620Z,19.10
2018-04-06T16:17:16.150Z,19.10
2018-04-06T16:19:44.432Z,19.10
2018-04-06T16:22:11.982Z,19.10
2018-04-06T16:24:40.274Z,18.80
2018-04-06T16:27:07.802Z,18.70
2018-04-06T16:29:35.346Z,18.40
2018-04-06T16:32:02.862Z,18.20
2018-04-06T16:34:30.390Z,18.20
2018-04-06T16:36:59.580Z,17.80
2018-04-06T16:39:27.189Z,17.80
2018-04-06T16:41:54.716Z,17.90
2018-04-06T16:44:22.819Z,17.70
2018-04-06T16:46:50.336Z,17.20
2018-04-06T16:49:18.651Z,16.80
2018-04-06T16:51:46.204Z,16.70
2018-04-06T16:54:13.751Z,16.60
2018-04-06T16:56:41.278Z,16.40
2018-04-06T16:59:09.632Z,15.90
2018-04-06T17:01:37.262Z,15.80
2018-04-06T17:04:04.832Z,15.60
2018-04-06T17:06:32.404Z,15.40
2018-04-06T17:08:59.914Z,15.20
2018-04-06T17:11:27.641Z,15.00
2018-04-06T17:13:55.965Z,14.80
2018-04-06T17:16:23.531Z,14.70
2018-04-06T17:18:51.044Z,14.70
2018-04-06T17:21:19.369Z,14.40
2018-04-06T17:23:46.905Z,14.30
2018-04-06T17:26:14.434Z,14.40
2018-04-06T17:28:43.264Z,14.20
2018-04-06T17:31:10.821Z,14.10
2018-04-06T17:33:38.342Z,14.10
2018-04-06T17:36:06.867Z,13.90
2018-04-06T17:38:34.381Z,13.90
2018-04-06T17:41:02.695Z,13.70
2018-04-06T17:43:30.310Z,13.70
2018-04-06T17:45:57.822Z,13.70
2018-04-06T17:48:25.342Z,13.60
2018-04-06T17:50:53.651Z,13.40
2018-04-06T17:53:21.200Z,13.30
2018-04-06T17:55:48.753Z,13.30
2018-04-06T17:58:16.317Z,13.20
2018-04-06T18:00:43.882Z,13.10
2018-04-06T18:03:11.431Z,13.00
2018-04-06T18:05:38.953Z,12.90
2018-04-06T18:08:06.558Z,12.90
2018-04-06T18:10:34.113Z,12.80
2018-04-06T18:13:01.677Z,12.60
2018-04-06T18:15:29.249Z,12.50
2018-04-06T18:17:56.899Z,12.40
2018-04-06T18:20:24.411Z,12.30
2018-04-06T18:22:51.918Z,12.20
2018-04-06T18:25:19.559Z,12.10
2018-04-06T18:27:47.086Z,12.00
2018-04-06T18:30:15.384Z,11.90
2018-04-06T18:32:42.942Z,11.90
2018-04-06T18:35:10.466Z,11.90
2018-04-06T18:37:37.991Z,11.80
2018-04-06T18:40:05.558Z,11.80
2018-04-06T18:42:33.103Z,11.80
2018-04-06T18:45:00.611Z,11.70
2018-04-06T18:47:28.924Z,11.60
2018-04-06T18:49:56.457Z,11.60
2018-04-06T18:52:24.767Z,11.50
2018-04-06T18:54:52.428Z,11.50
2018-04-06T18:57:19.957Z,11.50
2018-04-06T18:59:48.243Z,11.40
2018-04-06T19:02:15.795Z,11.40
2018-04-06T19:04:44.090Z,11.40
2018-04-06T19:07:11.647Z,11.30
2018-04-06T19:09:39.202Z,11.30
2018-04-06T19:12:06.777Z,11.30
2018-04-06T19:14:34.337Z,11.20
2018-04-06T19:17:01.898Z,11.20
2018-04-06T19:19:29.423Z,11.20
2018-04-06T19:21:57.718Z,11.10
2018-04-06T19:24:25.266Z,11.00
2018-04-06T19:26:52.950Z,11.10
2018-04-06T19:29:20.466Z,11.10
2018-04-06T19:31:49.188Z,11.00
2018-04-06T19:34:17.966Z,10.90
2018-04-06T19:36:45.477Z,11.00
2018-04-06T19:39:13.049Z,10.90
2018-04-06T19:41:41.392Z,10.90
2018-04-06T19:44:08.910Z,10.80
2018-04-06T19:46:36.503Z,10.80
2018-04-06T19:49:04.012Z,10.80
2018-04-06T19:51:32.295Z,10.80
2018-04-06T19:54:00.182Z,10.70
2018-04-06T19:56:27.742Z,10.80
2018-04-06T19:58:55.262Z,10.80
2018-04-06T20:01:23.588Z,10.70
2018-04-06T20:03:51.112Z,10.70
2018-04-06T20:06:18.706Z,10.70
2018-04-06T20:08:46.270Z,10.60
2018-04-06T20:11:13.821Z,10.60
2018-04-06T20:13:41.372Z,10.60
2018-04-06T20:16:08.921Z,10.60
2018-04-06T20:18:36.449Z,10.70
2018-04-06T20:21:04.769Z,10.60
2018-04-06T20:23:32.423Z,10.50
2018-04-06T20:25:59.990Z,10.60
2018-04-06T20:28:27.515Z,10.60
2018-04-06T20:30:55.059Z,10.50
2018-04-06T20:33:23.397Z,10.60
2018-04-06T20:35:50.917Z,10.50
2018-04-06T20:38:18.463Z,10.50
2018-04-06T20:40:46.743Z,10.50
2018-04-06T20:43:14.256Z,10.50
2018-04-06T20:45:41.818Z,10.50
2018-04-06T20:48:09.336Z,10.50
2018-04-06T20:50:36.875Z,10.50
2018-04-06T20:53:04.488Z,10.50
2018-04-06T20:55:32.031Z,10.50
2018-04-06T20:57:59.569Z,10.40
2018-04-06T21:00:27.133Z,10.40
2018-04-06T21:02:54.713Z,10.30
2018-04-06T21:05:22.355Z,10.30
2018-04-06T21:07:49.908Z,10.20
2018-04-06T21:10:17.436Z,10.20
2018-04-06T21:12:45.739Z,10.10
2018-04-06T21:15:13.290Z,10.00
2018-04-06T21:17:40.798Z,10.10
2018-04-06T21:20:08.326Z,10.10
2018-04-06T21:22:35.900Z,10.00
2018-04-06T21:25:03.455Z,10.00
2018-04-06T21:27:30.988Z,10.00
2018-04-06T21:29:58.551Z,10.00
2018-04-06T21:32:26.081Z,9.90
2018-04-06T21:34:54.361Z,9.80
2018-04-06T21:37:22.674Z,9.80
2018-04-06T21:39:50.186Z,9.70
2018-04-06T21:42:18.496Z,9.80
2018-04-06T21:44:46.049Z,9.70
2018-04-06T21:47:13.566Z,9.80
2018-04-06T21:49:41.168Z,9.80
2018-04-06T21:52:08.704Z,9.80
2018-04-06T21:54:36.972Z,9.70
2018-04-06T21:57:05.254Z,9.60
2018-04-06T21:59:33.567Z,9.60
2018-04-06T22:02:01.114Z,9.50
2018-04-06T22:04:28.677Z,9.50
2018-04-06T22:06:56.247Z,9.50
2018-04-06T22:09:23.769Z,9.50
2018-04-06T22:11:51.359Z,9.60
2018-04-06T22:14:18.923Z,9.50
2018-04-06T22:16:46.537Z,9.40
2018-04-06T22:19:14.847Z,9.20
2018-04-06T22:21:42.401Z,9.20
2018-04-06T22:24:09.946Z,9.20
2018-04-06T22:26:37.454Z,9.20
2018-04-06T22:29:05.005Z,9.20
2018-04-06T22:31:32.537Z,9.10
2018-04-06T22:34:00.098Z,9.10
2018-04-06T22:36:27.668Z,9.00
2018-04-06T22:38:55.225Z,9.00
2018-04-06T22:41:22.748Z,9.00
2018-04-06T22:43:50.302Z,9.00
2018-04-06T22:46:18.581Z,9.00
2018-04-06T22:48:46.100Z,9.00
2018-04-06T22:51:13.644Z,9.10
2018-04-06T22:53:41.177Z,9.00
2018-04-06T22:56:08.738Z,9.00
2018-04-06T22:58:36.414Z,8.90
2018-04-06T23:01:03.972Z,8.90
2018-04-06T23:03:31.521Z,8.90
2018-04-06T23:05:59.075Z,8.90
2018-04-06T23:08:26.588Z,8.90
2018-04-06T23:10:54.855Z,8.90
2018-04-06T23:13:22.416Z,8.90
2018-04-06T23:15:49.930Z,8.90
2018-04-06T23:18:17.434Z,8.90
2018-04-06T23:20:44.989Z,8.90
2018-04-06T23:23:13.268Z,8.90
2018-04-06T23:25:41.592Z,8.80
2018-04-06T23:28:09.154Z,8.70
2018-04-06T23:30:36.685Z,8.80
2018-04-06T23:33:04.200Z,8.80
2018-04-06T23:35:31.781Z,8.80
2018-04-06T23:38:00.198Z,8.70
2018-04-06T23:40:27.716Z,8.70
2018-04-06T23:42:56.023Z,8.70
2018-04-06T23:45:23.579Z,8.60
2018-04-06T23:47:51.101Z,8.60
2018-04-06T23:50:19.562Z,8.50
2018-04-06T23:52:47.101Z,8.40
2018-04-06T23:55:14.609Z,8.40
2018-04-06T23:57:43.018Z,8.30
